Time;durP1;ratioP1;P1;durP2;ratioP2;P2;SDS_P1;SDS_P2;PMS_P1;PMS_P2;Temp;Humidity;BMP_temperature;BMP_pressure;BME280_temperature;BME280_humidity;BME280_pressure;Samples;Min_cycle;Max_cycle;Signal;HPM_P1;HPM_P2
2023/01/31 00:00:00;;;;;;;5.72;3.10;;;2.80;99.90;;;;;;4962326;28;20041;-75
2023/01/31 00:02:26;;;;;;;7.07;3.67;;;2.80;99.90;;;;;;4967163;28;20031;-75
2023/01/31 00:04:52;;;;;;;7.57;2.95;;;2.70;99.90;;;;;;4969065;28;20113;-75
2023/01/31 00:07:17;;;;;;;6.20;3.47;;;2.80;99.90;;;;;;4964378;28;20078;-75
2023/01/31 00:09:43;;;;;;;9.20;3.85;;;2.70;99.90;;;;;;4967749;28;20030;-75
2023/01/31 00:12:09;;;;;;;6.80;3.25;;;2.70;99.90;;;;;;4964668;28;20109;-76
2023/01/31 00:14:34;;;;;;;8.30;3.60;;;2.70;99.90;;;;;;4967927;28;20023;-75
2023/01/31 00:17:00;;;;;;;9.00;3.05;;;2.70;99.90;;;;;;4966504;28;20026;-76
2023/01/31 00:19:25;;;;;;;7.75;3.08;;;2.80;99.90;;;;;;4982640;28;20058;-76
2023/01/31 00:21:52;;;;;;;9.25;3.83;;;2.70;99.90;;;;;;4966577;28;20034;-76
2023/01/31 00:24:18;;;;;;;8.45;3.28;;;2.80;99.90;;;;;;4966973;28;20029;-76
2023/01/31 00:26:43;;;;;;;7.30;3.75;;;2.80;99.90;;;;;;4974952;28;20395;-75
2023/01/31 00:29:09;;;;;;;8.60;3.90;;;2.70;99.90;;;;;;4976818;28;20034;-75
2023/01/31 00:31:35;;;;;;;10.20;3.70;;;2.80;99.90;;;;;;4972160;28;20038;-76
2023/01/31 00:34:01;;;;;;;8.13;3.38;;;2.80;99.90;;;;;;4968516;28;20392;-76
2023/01/31 00:36:32;;;;;;;7.18;3.28;;;2.70;99.90;;;;;;4986752;28;20031;-76
2023/01/31 00:38:59;;;;;;;7.43;3.40;;;2.70;99.90;;;;;;4963775;28;20029;-75
2023/01/31 00:41:26;;;;;;;6.78;3.70;;;2.70;99.90;;;;;;4970221;28;20464;-76
2023/01/31 00:43:52;;;;;;;10.38;3.72;;;2.80;99.90;;;;;;4969667;28;20410;-76
2023/01/31 00:46:21;;;;;;;8.00;3.92;;;2.70;99.90;;;;;;4969732;28;20031;-76
2023/01/31 00:48:47;;;;;;;6.57;3.03;;;2.80;99.90;;;;;;4963087;28;20054;-76
2023/01/31 00:51:15;;;;;;;6.55;3.25;;;2.80;99.90;;;;;;4967596;28;20035;-76
2023/01/31 00:53:40;;;;;;;7.25;3.22;;;2.80;99.90;;;;;;4967789;28;20039;-76
2023/01/31 00:56:14;;;;;;;6.05;2.38;;;2.80;99.90;;;;;;4968551;28;20035;-76
2023/01/31 00:58:40;;;;;;;5.68;3.25;;;2.80;99.90;;;;;;4966838;28;20290;-76
2023/01/31 01:01:15;;;;;;;7.82;3.47;;;2.70;99.90;;;;;;4964835;28;20117;-76
2023/01/31 01:03:42;;;;;;;8.60;2.60;;;2.70;99.90;;;;;;4981200;28;20031;-76
2023/01/31 01:06:09;;;;;;;6.95;3.33;;;2.70;99.90;;;;;;4968756;28;20129;-75
2023/01/31 01:08:36;;;;;;;7.85;3.65;;;2.60;99.90;;;;;;4970277;28;20093;-75
2023/01/31 01:11:11;;;;;;;7.43;3.28;;;2.60;99.90;;;;;;4967744;28;20095;-76
2023/01/31 01:13:37;;;;;;;6.43;3.05;;;2.60;99.90;;;;;;4965976;28;20031;-75
2023/01/31 01:16:09;;;;;;;6.82;3.00;;;2.50;99.90;;;;;;4970395;28;20573;-76
2023/01/31 01:18:35;;;;;;;7.13;3.25;;;2.50;99.90;;;;;;4966440;28;20065;-76
2023/01/31 01:21:11;;;;;;;6.70;2.88;;;2.50;99.90;;;;;;4965925;28;20178;-76
2023/01/31 01:23:38;;;;;;;7.47;3.33;;;2.40;99.90;;;;;;4983366;28;20122;-76
2023/01/31 01:26:04;;;;;;;8.48;3.47;;;2.40;99.90;;;;;;4965162;28;20738;-76
2023/01/31 01:28:33;;;;;;;11.90;4.22;;;2.30;99.90;;;;;;4964991;28;20846;-75
2023/01/31 01:31:03;;;;;;;6.07;3.03;;;2.30;99.90;;;;;;4969284;28;20544;-75
2023/01/31 01:33:30;;;;;;;9.38;3.13;;;2.30;99.90;;;;;;4964816;28;20031;-75
2023/01/31 01:36:00;;;;;;;5.93;3.47;;;2.20;99.90;;;;;;4969553;28;20030;-75
2023/01/31 01:38:26;;;;;;;7.63;3.42;;;2.20;99.90;;;;;;4972889;28;20049;-75
2023/01/31 01:40:51;;;;;;;10.15;3.15;;;2.20;99.90;;;;;;4968632;28;20332;-74
2023/01/31 01:43:17;;;;;;;5.90;3.45;;;2.10;99.90;;;;;;4965985;28;20035;-75
2023/01/31 01:45:43;;;;;;;8.07;3.50;;;2.10;99.90;;;;;;4968315;28;20097;-75
2023/01/31 01:48:15;;;;;;;7.78;3.05;;;2.10;99.90;;;;;;4967489;28;20042;-76
2023/01/31 01:50:46;;;;;;;9.40;2.92;;;2.10;99.90;;;;;;4968274;28;20117;-75
2023/01/31 01:53:16;;;;;;;5.53;2.92;;;2.00;99.90;;;;;;4966260;28;20023;-75
2023/01/31 01:55:53;;;;;;;6.72;2.97;;;2.00;99.90;;;;;;4965237;28;20063;-76
2023/01/31 01:58:25;;;;;;;6.55;3.30;;;2.00;99.90;;;;;;4967958;28;20026;-75
2023/01/31 02:00:52;;;;;;;5.90;2.83;;;2.00;99.90;;;;;;4982490;28;20031;-75
2023/01/31 02:03:18;;;;;;;4.82;2.63;;;2.00;99.90;;;;;;4967920;28;20441;-77
2023/01/31 02:05:56;;;;;;;6.50;2.97;;;2.00;99.90;;;;;;4967683;28;20027;-78
2023/01/31 02:08:25;;;;;;;9.52;3.47;;;2.00;99.90;;;;;;4969450;28;20506;-78
2023/01/31 02:11:00;;;;;;;12.32;3.53;;;2.00;99.90;;;;;;4988419;28;20067;-77
2023/01/31 02:13:27;;;;;;;4.75;2.72;;;2.00;99.90;;;;;;4966363;28;20049;-76
2023/01/31 02:15:53;;;;;;;5.40;2.92;;;2.00;99.90;;;;;;4967555;28;20022;-77
2023/01/31 02:18:21;;;;;;;8.43;3.55;;;2.00;99.90;;;;;;4970120;28;20109;-77
2023/01/31 02:21:05;;;;;;;10.00;4.07;;;2.00;99.90;;;;;;4985688;28;20153;-77
2023/01/31 02:23:49;;;;;;;;;;;2.10;99.90;;;;;;4965372;28;20140;-76
2023/01/31 02:26:53;;;;;;;5.68;2.70;;;2.10;99.90;;;;;;4989596;28;19910;-76
2023/01/31 02:29:59;;;;;;;7.87;3.13;;;2.10;99.90;;;;;;4965261;28;20130;-77
2023/01/31 02:33:02;;;;;;;8.15;2.80;;;2.10;99.90;;;;;;4927014;29;20296;-76
2023/01/31 02:35:57;;;;;;;12.13;3.13;;;2.10;99.90;;;;;;4979643;28;20034;-76
2023/01/31 02:38:33;;;;;;;9.00;3.38;;;2.10;99.90;;;;;;4960930;28;20414;-75
2023/01/31 02:41:17;;;;;;;7.03;2.97;;;2.10;99.90;;;;;;4963790;28;20467;-76
2023/01/31 02:47:05;;;;;;;5.57;2.80;;;2.10;99.90;;;;;;4971466;28;20403;-76
2023/01/31 02:49:40;;;;;;;14.68;4.90;;;2.00;99.90;;;;;;4967023;28;20030;-75
2023/01/31 02:52:19;;;;;;;7.70;3.63;;;1.90;99.90;;;;;;4965814;28;20035;-76
2023/01/31 02:57:49;;;;;;;10.18;3.28;;;1.90;99.90;;;;;;4970832;28;20053;-75
2023/01/31 03:00:15;;;;;;;8.18;3.03;;;1.80;99.90;;;;;;4976580;28;20022;-75
2023/01/31 03:02:40;;;;;;;9.77;2.95;;;1.80;99.90;;;;;;4974019;28;20550;-75
2023/01/31 03:05:06;;;;;;;9.18;3.70;;;1.80;99.90;;;;;;4974596;28;20023;-76
2023/01/31 03:07:36;;;;;;;6.47;3.10;;;1.80;99.90;;;;;;4971827;28;20035;-75
2023/01/31 03:10:24;;;;;;;15.77;5.20;;;1.70;99.90;;;;;;4987628;28;20026;-75
2023/01/31 03:13:05;;;;;;;8.80;3.13;;;1.70;99.90;;;;;;4973091;28;20154;-75
2023/01/31 03:18:48;;;;;;;7.63;3.08;;;1.70;99.90;;;;;;4970800;28;20111;-74
2023/01/31 03:21:25;;;;;;;10.68;3.38;;;1.70;99.90;;;;;;4983337;28;21414;-75
2023/01/31 03:23:54;;;;;;;7.25;2.80;;;1.70;99.90;;;;;;4990116;28;20824;-74
2023/01/31 03:26:21;;;;;;;6.68;3.17;;;1.70;99.90;;;;;;4975322;28;20074;-75
2023/01/31 03:28:53;;;;;;;8.13;3.20;;;1.60;99.90;;;;;;4976156;28;20037;-76
2023/01/31 03:31:18;;;;;;;9.85;3.50;;;1.60;99.90;;;;;;4973667;28;20417;-76
2023/01/31 03:33:51;;;;;;;8.30;2.70;;;1.60;99.90;;;;;;4976046;28;20092;-75
2023/01/31 03:36:32;;;;;;;8.38;3.05;;;1.60;99.90;;;;;;4970726;28;20435;-76
2023/01/31 03:39:14;;;;;;;10.90;2.83;;;1.60;99.90;;;;;;4974466;28;20109;-75
2023/01/31 03:42:24;;;;;;;6.93;2.55;;;1.50;99.90;;;;;;4974422;28;20388;-75
2023/01/31 03:45:14;;;;;;;6.03;2.88;;;1.50;99.90;;;;;;4954566;29;20504;-75
2023/01/31 03:47:47;;;;;;;9.32;3.97;;;1.50;99.90;;;;;;4972139;28;20031;-76
2023/01/31 03:50:28;;;;;;;8.37;2.83;;;1.50;99.90;;;;;;4976465;28;20043;-76
2023/01/31 03:53:17;;;;;;;7.40;3.17;;;1.50;99.90;;;;;;4974854;28;20031;-76
2023/01/31 03:55:52;;;;;;;9.13;3.92;;;1.50;99.90;;;;;;4976183;28;20027;-76
2023/01/31 03:58:22;;;;;;;8.73;2.92;;;1.50;99.90;;;;;;4974919;28;20110;-76
2023/01/31 04:00:50;;;;;;;5.13;3.00;;;1.50;99.90;;;;;;4976106;28;20027;-76
2023/01/31 04:03:34;;;;;;;8.43;4.00;;;1.50;99.90;;;;;;4976258;28;20003;-76
2023/01/31 04:06:00;;;;;;;;;;;1.50;99.90;;;;;;4975101;28;20147;-75
2023/01/31 04:08:26;;;;;;;10.77;3.80;;;1.50;99.90;;;;;;4969101;28;19913;-75
2023/01/31 04:10:53;;;;;;;9.27;3.58;;;1.50;99.90;;;;;;4978527;28;20122;-76
2023/01/31 04:13:20;;;;;;;9.52;3.58;;;1.50;99.90;;;;;;4971625;28;20027;-77
2023/01/31 04:15:46;;;;;;;6.43;3.22;;;1.50;99.90;;;;;;4979483;28;20054;-76
2023/01/31 04:18:12;;;;;;;9.98;3.92;;;1.50;99.90;;;;;;4972587;28;20038;-76
2023/01/31 04:20:37;;;;;;;9.88;3.22;;;1.50;99.90;;;;;;4974092;28;20023;-76
2023/01/31 04:23:03;;;;;;;8.40;3.83;;;1.50;99.90;;;;;;4976786;28;20396;-76
2023/01/31 04:25:29;;;;;;;4.82;2.92;;;1.50;99.90;;;;;;4976599;28;20034;-77
2023/01/31 04:27:55;;;;;;;12.77;3.72;;;1.50;99.90;;;;;;4972582;28;20472;-77
2023/01/31 04:30:20;;;;;;;11.63;3.33;;;1.50;99.90;;;;;;4969981;28;20460;-75
2023/01/31 04:32:46;;;;;;;12.95;3.67;;;1.50;99.90;;;;;;4974496;28;20480;-76
2023/01/31 04:35:12;;;;;;;10.18;3.00;;;1.60;99.90;;;;;;4973675;28;20033;-76
2023/01/31 04:37:37;;;;;;;6.40;2.80;;;1.50;99.90;;;;;;4976327;28;20033;-76
2023/01/31 04:40:04;;;;;;;10.60;3.70;;;1.60;99.90;;;;;;4969779;28;20110;-75
2023/01/31 04:42:30;;;;;;;14.73;3.17;;;1.60;99.90;;;;;;4975277;28;20093;-76
2023/01/31 04:44:56;;;;;;;8.13;3.53;;;1.60;99.90;;;;;;4974678;28;20480;-75
2023/01/31 04:47:21;;;;;;;11.18;3.97;;;1.60;99.90;;;;;;4968962;28;20038;-75
2023/01/31 04:49:47;;;;;;;11.35;3.30;;;1.60;99.90;;;;;;4975043;28;20081;-76
2023/01/31 04:52:12;;;;;;;9.52;3.53;;;1.60;99.90;;;;;;4974148;28;20097;-76
2023/01/31 04:54:38;;;;;;;11.05;3.75;;;1.60;99.90;;;;;;4971940;28;20031;-76
2023/01/31 04:57:04;;;;;;;11.88;3.60;;;1.60;99.90;;;;;;4968921;28;20239;-75
2023/01/31 04:59:29;;;;;;;8.38;3.05;;;1.60;99.90;;;;;;4974189;28;20499;-76
2023/01/31 05:01:55;;;;;;;7.53;3.72;;;1.50;99.90;;;;;;4975455;28;20500;-76
2023/01/31 05:04:21;;;;;;;9.70;3.10;;;1.60;99.90;;;;;;4986826;28;20384;-76
2023/01/31 05:06:47;;;;;;;10.20;3.55;;;1.50;99.90;;;;;;4973466;28;20042;-76
2023/01/31 05:09:13;;;;;;;10.52;3.60;;;1.50;99.90;;;;;;4971285;28;20023;-75
2023/01/31 05:11:39;;;;;;;13.00;3.50;;;1.50;99.90;;;;;;4970985;28;20041;-76
2023/01/31 05:14:05;;;;;;;10.05;3.88;;;1.50;99.90;;;;;;4973921;28;20023;-75
2023/01/31 05:16:30;;;;;;;12.15;3.70;;;1.50;99.90;;;;;;4968280;28;20090;-75
2023/01/31 05:18:56;;;;;;;11.63;3.70;;;1.40;99.90;;;;;;4980595;28;20066;-76
2023/01/31 05:21:22;;;;;;;12.75;4.15;;;1.50;99.90;;;;;;4964095;28;20026;-75
2023/01/31 05:23:47;;;;;;;21.02;4.93;;;1.50;99.90;;;;;;4979541;28;20094;-75
2023/01/31 05:26:13;;;;;;;20.25;3.80;;;1.60;99.90;;;;;;4974406;28;20476;-75
2023/01/31 05:28:39;;;;;;;11.23;3.63;;;1.60;99.90;;;;;;4972792;28;20027;-75
2023/01/31 05:31:06;;;;;;;11.35;3.35;;;1.60;99.90;;;;;;4962041;28;20153;-75
2023/01/31 05:33:32;;;;;;;8.85;4.07;;;1.70;99.90;;;;;;4988504;28;20099;-76
2023/01/31 05:35:59;;;;;;;14.75;3.88;;;1.70;99.90;;;;;;4972403;28;20055;-76
2023/01/31 05:38:24;;;;;;;14.88;4.50;;;1.80;99.90;;;;;;4971748;28;20087;-76
2023/01/31 05:40:50;;;;;;;10.55;3.30;;;1.80;99.90;;;;;;4974835;28;20050;-76
2023/01/31 05:43:16;;;;;;;12.20;3.90;;;1.80;99.90;;;;;;4969706;28;20113;-77
2023/01/31 05:45:41;;;;;;;9.88;3.13;;;1.90;99.90;;;;;;4979992;28;20430;-76
2023/01/31 05:48:07;;;;;;;11.38;3.30;;;1.90;99.90;;;;;;4972881;28;20067;-77
2023/01/31 05:50:33;;;;;;;15.18;3.40;;;2.00;99.90;;;;;;4974126;28;20483;-75
2023/01/31 05:52:59;;;;;;;7.72;3.17;;;2.00;99.90;;;;;;4969465;28;20037;-76
2023/01/31 05:55:26;;;;;;;12.32;4.30;;;2.00;99.90;;;;;;4972477;28;20026;-77
2023/01/31 05:57:53;;;;;;;7.78;3.75;;;2.10;99.90;;;;;;4974377;28;20023;-75
2023/01/31 06:00:19;;;;;;;12.52;3.58;;;2.10;99.90;;;;;;4969544;28;20030;-70
2023/01/31 06:02:45;;;;;;;8.18;3.90;;;2.10;99.90;;;;;;4969514;28;20086;-70
2023/01/31 06:05:11;;;;;;;9.60;3.78;;;2.10;99.90;;;;;;4969716;28;20035;-76
2023/01/31 06:07:37;;;;;;;11.32;3.58;;;2.20;99.90;;;;;;4972058;28;20454;-74
2023/01/31 06:10:04;;;;;;;10.50;3.88;;;2.20;99.90;;;;;;4973296;28;20085;-74
2023/01/31 06:12:30;;;;;;;10.38;3.83;;;2.20;99.90;;;;;;4970479;28;20037;-75
2023/01/31 06:14:56;;;;;;;11.05;3.83;;;2.20;99.90;;;;;;4968831;28;20126;-74
2023/01/31 06:17:24;;;;;;;11.77;4.18;;;2.20;99.90;;;;;;4982927;28;20015;-76
2023/01/31 06:19:50;;;;;;;10.45;3.75;;;2.30;99.90;;;;;;4968586;28;20522;-76
2023/01/31 06:22:19;;;;;;;9.82;3.55;;;2.30;99.90;;;;;;4972514;28;20023;-76
2023/01/31 06:24:45;;;;;;;10.60;3.25;;;2.30;99.90;;;;;;4969131;28;20482;-76
2023/01/31 06:27:10;;;;;;;16.13;3.72;;;2.30;99.90;;;;;;4972092;28;20037;-75
2023/01/31 06:29:36;;;;;;;10.93;3.28;;;2.30;99.90;;;;;;4963996;28;20028;-75
2023/01/31 06:32:02;;;;;;;7.72;2.80;;;2.30;99.90;;;;;;4971554;28;20019;-75
2023/01/31 06:34:28;;;;;;;11.95;3.72;;;2.30;99.90;;;;;;4975537;28;20523;-76
2023/01/31 06:36:53;;;;;;;15.18;4.10;;;2.30;99.90;;;;;;4972262;28;20395;-74
2023/01/31 06:39:19;;;;;;;17.73;4.55;;;2.30;99.90;;;;;;4977784;28;20030;-76
2023/01/31 06:41:44;;;;;;;9.25;3.72;;;2.20;99.90;;;;;;4975859;28;20034;-75
2023/01/31 06:44:10;;;;;;;10.85;3.47;;;2.20;99.90;;;;;;4977133;28;20022;-75
2023/01/31 06:46:36;;;;;;;9.10;3.95;;;2.20;99.90;;;;;;4969978;28;20054;-75
2023/01/31 06:49:02;;;;;;;12.60;3.97;;;2.20;99.90;;;;;;4975436;28;20081;-75
2023/01/31 06:51:27;;;;;;;11.15;3.47;;;2.20;99.90;;;;;;4976076;28;20034;-75
2023/01/31 06:53:55;;;;;;;11.00;3.13;;;2.20;99.90;;;;;;4971331;28;20114;-75
2023/01/31 06:56:21;;;;;;;9.73;2.97;;;2.20;99.90;;;;;;4976331;28;20509;-74
2023/01/31 06:58:47;;;;;;;10.95;3.60;;;2.20;99.90;;;;;;4974522;28;20029;-75
2023/01/31 07:01:14;;;;;;;13.57;3.30;;;2.30;99.90;;;;;;4968646;28;20030;-75
2023/01/31 07:03:40;;;;;;;15.05;3.33;;;2.20;99.90;;;;;;4970652;28;20021;-76
2023/01/31 07:06:07;;;;;;;7.78;3.00;;;2.30;99.90;;;;;;4975048;28;20061;-75
2023/01/31 07:08:34;;;;;;;15.13;3.47;;;2.20;99.90;;;;;;4975069;28;20470;-74
2023/01/31 07:11:00;;;;;;;11.88;3.92;;;2.20;99.90;;;;;;4972083;28;20122;-76
2023/01/31 07:13:27;;;;;;;15.10;4.70;;;2.20;99.90;;;;;;4975837;28;20140;-75
2023/01/31 07:15:54;;;;;;;12.90;4.18;;;2.20;99.90;;;;;;4975548;28;20037;-76
2023/01/31 07:18:19;;;;;;;11.52;3.72;;;2.30;99.90;;;;;;4977726;28;20042;-78
2023/01/31 07:20:45;;;;;;;12.38;4.05;;;2.30;99.90;;;;;;4977238;28;20060;-77
2023/01/31 07:23:11;;;;;;;10.55;3.08;;;2.30;99.90;;;;;;4991321;28;20033;-77
2023/01/31 07:25:36;;;;;;;6.47;3.58;;;2.30;99.90;;;;;;4974381;28;20027;-75
2023/01/31 07:28:02;;;;;;;10.32;3.35;;;2.20;99.90;;;;;;4983179;28;20077;-75
2023/01/31 07:30:29;;;;;;;7.97;3.17;;;2.30;99.90;;;;;;4981467;28;20040;-76
2023/01/31 07:32:54;;;;;;;12.13;3.35;;;2.30;99.90;;;;;;4967400;28;20058;-74
2023/01/31 07:35:20;;;;;;;9.07;2.72;;;2.30;99.90;;;;;;4971581;28;20499;-74
2023/01/31 07:37:49;;;;;;;12.98;3.20;;;2.30;99.90;;;;;;4976496;28;20373;-75
2023/01/31 07:40:15;;;;;;;10.75;3.50;;;2.30;99.90;;;;;;4977309;28;20023;-75
2023/01/31 07:42:41;;;;;;;11.63;3.28;;;2.20;99.90;;;;;;4976367;28;20064;-74
2023/01/31 07:45:10;;;;;;;10.00;3.20;;;2.20;99.90;;;;;;4972264;28;20022;-74
2023/01/31 07:47:35;;;;;;;10.48;3.33;;;2.20;99.90;;;;;;4976595;28;20027;-74
2023/01/31 07:50:01;;;;;;;8.73;3.03;;;2.20;99.90;;;;;;4976600;28;20516;-74
2023/01/31 07:52:27;;;;;;;9.95;3.42;;;2.20;99.90;;;;;;4959425;28;20035;-74
2023/01/31 07:54:52;;;;;;;9.05;3.30;;;2.30;99.90;;;;;;4958135;28;20035;-74
2023/01/31 07:57:18;;;;;;;10.20;2.95;;;2.30;99.90;;;;;;4976408;28;20027;-75
2023/01/31 07:59:44;;;;;;;14.32;3.90;;;2.30;99.90;;;;;;4991262;28;20073;-76
2023/01/31 08:04:59;;;;;;;11.80;4.15;;;2.30;99.90;;;;;;4976026;28;20109;-75
2023/01/31 08:07:25;;;;;;;13.07;3.92;;;2.40;99.90;;;;;;4973426;28;20059;-75
2023/01/31 08:09:51;;;;;;;13.82;3.85;;;2.40;99.90;;;;;;4976489;28;20092;-75
2023/01/31 08:12:17;;;;;;;14.20;3.40;;;2.50;99.90;;;;;;4976885;28;20023;-74
2023/01/31 08:14:43;;;;;;;11.57;3.85;;;2.50;99.90;;;;;;4974623;28;20108;-75
2023/01/31 08:17:09;;;;;;;10.27;3.40;;;2.60;99.90;;;;;;4974754;28;20026;-75
2023/01/31 08:19:35;;;;;;;15.68;2.83;;;2.60;99.90;;;;;;4976294;28;20026;-75
2023/01/31 08:22:01;;;;;;;13.50;3.30;;;2.60;99.90;;;;;;4975706;28;20011;-75
2023/01/31 08:24:27;;;;;;;6.35;3.53;;;2.70;99.90;;;;;;4974520;28;20026;-76
2023/01/31 08:26:53;;;;;;;10.95;3.50;;;2.70;99.90;;;;;;4981071;28;20035;-75
2023/01/31 08:29:18;;;;;;;9.50;3.30;;;2.70;99.90;;;;;;4955364;28;20023;-75
2023/01/31 08:31:44;;;;;;;11.68;4.00;;;2.80;99.90;;;;;;4968456;28;20078;-75
2023/01/31 08:34:10;;;;;;;9.95;3.40;;;2.70;99.90;;;;;;4973555;28;20030;-75
2023/01/31 08:36:36;;;;;;;10.68;3.20;;;2.70;99.90;;;;;;4975886;28;20476;-74
2023/01/31 08:39:03;;;;;;;12.90;3.30;;;2.70;99.90;;;;;;4975739;28;20023;-74
2023/01/31 08:41:30;;;;;;;11.27;3.15;;;2.70;99.90;;;;;;4970215;28;20049;-75
2023/01/31 08:43:56;;;;;;;8.68;3.20;;;2.70;99.90;;;;;;4975438;28;20396;-74
2023/01/31 08:46:44;;;;;;;12.73;4.03;;;2.70;99.90;;;;;;4969431;28;20031;-75
2023/01/31 08:49:10;;;;;;;13.25;3.30;;;2.80;99.90;;;;;;4954362;28;20023;-75
2023/01/31 08:51:36;;;;;;;11.13;3.55;;;2.80;99.90;;;;;;4971716;28;20030;-76
2023/01/31 08:54:01;;;;;;;11.23;4.00;;;2.90;99.90;;;;;;4972683;28;20492;-76
2023/01/31 08:56:27;;;;;;;11.85;3.08;;;2.90;99.90;;;;;;4972600;28;20073;-75
2023/01/31 08:58:53;;;;;;;8.77;3.30;;;2.90;99.90;;;;;;4962206;28;20038;-76
2023/01/31 09:01:21;;;;;;;9.93;3.47;;;2.90;99.90;;;;;;4965946;23;20150;-78
2023/01/31 09:03:49;;;;;;;10.25;3.00;;;2.90;99.90;;;;;;4977448;28;20051;-78
2023/01/31 09:06:20;;;;;;;12.10;3.47;;;3.00;99.90;;;;;;4971253;28;20178;-78
2023/01/31 09:08:46;;;;;;;10.68;4.30;;;3.10;99.90;;;;;;4972844;28;20430;-77
2023/01/31 09:11:17;;;;;;;12.93;3.17;;;3.10;99.90;;;;;;4973176;28;20022;-77
2023/01/31 09:13:44;;;;;;;10.13;2.90;;;3.10;99.90;;;;;;4969603;28;20035;-78
2023/01/31 09:16:12;;;;;;;14.00;4.05;;;3.10;99.90;;;;;;4969759;28;20030;-77
2023/01/31 09:18:39;;;;;;;16.15;3.95;;;3.10;99.90;;;;;;4968329;28;20387;-77
2023/01/31 09:21:06;;;;;;;11.85;4.15;;;3.10;99.90;;;;;;4965131;28;20380;-77
2023/01/31 09:23:33;;;;;;;10.13;3.58;;;3.10;99.90;;;;;;4978357;28;20082;-77
2023/01/31 09:25:58;;;;;;;10.35;3.40;;;3.10;99.90;;;;;;4973098;28;20023;-77
2023/01/31 09:28:24;;;;;;;8.80;3.25;;;3.20;99.90;;;;;;4968244;28;20031;-76
2023/01/31 09:30:52;;;;;;;9.60;3.05;;;3.10;99.90;;;;;;4969294;28;20030;-77
2023/01/31 09:33:18;;;;;;;9.85;2.90;;;3.20;99.90;;;;;;4970736;28;20130;-77
2023/01/31 09:35:55;;;;;;;10.77;3.53;;;3.20;99.90;;;;;;4968924;28;20038;-77
2023/01/31 09:38:22;;;;;;;7.93;2.55;;;3.20;99.90;;;;;;4963438;28;20073;-77
2023/01/31 09:40:48;;;;;;;11.35;3.30;;;3.30;99.90;;;;;;4966839;28;20035;-77
2023/01/31 09:43:16;;;;;;;9.13;2.58;;;3.20;99.90;;;;;;4963826;28;20185;-77
2023/01/31 09:45:43;;;;;;;10.38;3.17;;;3.30;99.90;;;;;;4972294;28;20046;-77
2023/01/31 09:48:16;;;;;;;9.48;3.08;;;3.30;99.90;;;;;;4985643;28;20122;-77
2023/01/31 09:50:47;;;;;;;8.00;3.05;;;3.50;99.90;;;;;;4963594;28;20033;-77
2023/01/31 09:53:20;;;;;;;9.73;2.75;;;3.50;99.90;;;;;;4968369;28;20117;-76
2023/01/31 09:56:14;;;;;;;9.02;2.92;;;3.60;99.90;;;;;;4969992;28;20065;-77
2023/01/31 09:59:00;;;;;;;8.40;2.63;;;3.70;99.90;;;;;;4968560;28;20141;-77
2023/01/31 10:01:38;;;;;;;8.75;2.90;;;3.80;99.90;;;;;;4962933;28;20041;-77
2023/01/31 10:04:22;;;;;;;7.88;2.58;;;3.90;99.90;;;;;;4968624;28;20050;-77
2023/01/31 10:06:55;;;;;;;;;;;4.00;99.90;;;;;;4969585;28;20027;-77
2023/01/31 10:09:36;;;;;;;9.15;2.58;;;4.10;99.90;;;;;;4968657;28;20020;-77
2023/01/31 10:12:48;;;;;;;11.73;2.58;;;4.10;99.90;;;;;;4973138;28;20113;-77
2023/01/31 10:15:45;;;;;;;13.50;3.15;;;4.20;99.90;;;;;;4931942;29;20667;-79
2023/01/31 10:18:27;;;;;;;10.90;2.50;;;4.30;99.90;;;;;;4950809;28;20600;-78
2023/01/31 10:21:14;;;;;;;7.82;2.40;;;4.30;99.90;;;;;;4969873;28;20029;-77
2023/01/31 10:23:49;;;;;;;11.15;3.00;;;4.50;99.90;;;;;;4968370;28;20027;-78
2023/01/31 10:26:38;;;;;;;6.45;2.50;;;4.50;99.90;;;;;;4971243;28;20036;-78
2023/01/31 10:29:27;;;;;;;13.10;3.15;;;4.60;99.90;;;;;;4968908;28;20539;-78
2023/01/31 10:31:56;;;;;;;9.07;2.65;;;4.60;99.90;;;;;;4963721;28;20035;-78
2023/01/31 10:34:29;;;;;;;8.93;2.10;;;4.60;99.90;;;;;;4976508;28;20134;-78
2023/01/31 10:37:01;;;;;;;5.55;2.00;;;4.70;99.90;;;;;;4973504;28;20517;-78
2023/01/31 10:39:30;;;;;;;9.13;3.00;;;4.70;99.90;;;;;;4973768;28;20019;-78
2023/01/31 10:42:05;;;;;;;15.10;2.63;;;4.70;99.90;;;;;;4985328;28;20451;-78
2023/01/31 10:44:52;;;;;;;10.52;2.88;;;4.70;99.90;;;;;;4966657;28;20444;-77
2023/01/31 10:47:28;;;;;;;9.65;2.72;;;4.80;99.90;;;;;;4970057;28;20495;-77
2023/01/31 10:49:54;;;;;;;7.70;2.63;;;4.80;99.90;;;;;;4973191;28;20050;-78
2023/01/31 10:52:29;;;;;;;9.90;2.70;;;4.80;99.90;;;;;;4973036;28;20047;-78
2023/01/31 10:55:02;;;;;;;9.82;2.60;;;4.80;99.90;;;;;;4986704;28;20035;-78
2023/01/31 10:57:28;;;;;;;10.63;2.63;;;4.70;99.90;;;;;;4969207;28;20069;-78
2023/01/31 10:59:57;;;;;;;12.45;2.65;;;4.80;99.90;;;;;;4969332;28;20031;-77
2023/01/31 11:02:28;;;;;;;8.65;2.60;;;4.80;99.90;;;;;;4983292;28;20483;-77
2023/01/31 11:04:58;;;;;;;9.13;2.72;;;4.90;99.90;;;;;;4973015;28;20109;-78
2023/01/31 11:07:27;;;;;;;8.85;2.42;;;4.90;99.90;;;;;;4974027;28;20058;-77
2023/01/31 11:09:58;;;;;;;9.80;2.60;;;5.00;99.90;;;;;;4967725;28;20046;-78
2023/01/31 11:12:55;;;;;;;11.57;2.58;;;5.00;99.90;;;;;;4968243;28;20041;-79
2023/01/31 11:15:24;;;;;;;10.45;2.78;;;5.10;99.90;;;;;;4967075;28;20039;-79
2023/01/31 11:17:50;;;;;;;9.50;2.60;;;5.10;99.90;;;;;;4971754;28;20086;-77
2023/01/31 11:20:36;;;;;;;6.90;2.28;;;5.10;99.90;;;;;;4997763;28;20038;-77
2023/01/31 11:23:05;;;;;;;6.85;2.40;;;5.20;99.90;;;;;;4976367;28;20029;-78
2023/01/31 11:25:33;;;;;;;5.45;2.33;;;5.30;99.90;;;;;;4978366;28;20031;-77
2023/01/31 11:28:17;;;;;;;10.90;2.67;;;5.30;99.90;;;;;;4973963;28;20062;-77
2023/01/31 11:30:49;;;;;;;8.77;2.45;;;5.40;99.90;;;;;;4991673;28;20037;-80
2023/01/31 11:33:36;;;;;;;14.75;2.83;;;5.50;99.90;;;;;;4976787;28;20037;-76
2023/01/31 11:36:08;;;;;;;8.43;2.10;;;5.60;99.90;;;;;;4967769;28;20042;-76
2023/01/31 11:38:34;;;;;;;4.97;1.83;;;5.70;99.90;;;;;;4971929;28;20355;-76
2023/01/31 11:40:59;;;;;;;7.35;2.42;;;5.70;99.90;;;;;;4966866;28;20035;-77
2023/01/31 11:43:29;;;;;;;6.32;1.85;;;5.60;99.90;;;;;;4963434;28;20075;-78
2023/01/31 11:46:01;;;;;;;7.25;1.65;;;5.60;99.90;;;;;;4971815;28;20033;-78
2023/01/31 11:48:39;;;;;;;7.70;1.67;;;5.60;99.90;;;;;;4971644;28;20035;-78
2023/01/31 11:51:06;;;;;;;6.70;2.08;;;5.50;99.90;;;;;;4968995;28;20023;-77
2023/01/31 11:53:42;;;;;;;4.55;1.85;;;5.50;99.90;;;;;;4991758;28;20027;-78
2023/01/31 11:56:20;;;;;;;6.90;1.70;;;5.60;99.90;;;;;;4980267;28;20027;-78
2023/01/31 11:58:49;;;;;;;8.20;2.20;;;5.60;99.90;;;;;;4980059;28;20027;-79
2023/01/31 12:01:25;;;;;;;9.13;1.60;;;5.80;99.90;;;;;;4979156;28;20050;-77
2023/01/31 12:03:59;;;;;;;6.57;1.85;;;5.80;99.90;;;;;;4977997;28;20030;-78
2023/01/31 12:06:36;;;;;;;11.88;2.60;;;5.80;99.90;;;;;;5001800;28;20496;-79
2023/01/31 12:09:17;;;;;;;9.20;2.10;;;5.80;99.90;;;;;;4977774;28;20046;-79
2023/01/31 12:12:09;;;;;;;4.55;1.58;;;5.90;99.90;;;;;;4979878;28;20025;-79
2023/01/31 12:14:41;;;;;;;4.82;1.55;;;5.90;99.90;;;;;;4974547;28;20046;-79
2023/01/31 12:17:13;;;;;;;9.02;2.45;;;5.90;99.90;;;;;;4973150;28;20027;-79
2023/01/31 12:19:46;;;;;;;11.55;2.38;;;5.90;99.90;;;;;;4978502;28;20552;-79
2023/01/31 12:22:20;;;;;;;6.82;2.03;;;5.90;99.90;;;;;;4979651;28;20031;-79
2023/01/31 12:25:06;;;;;;;8.15;1.92;;;5.80;99.90;;;;;;4971528;28;20053;-79
2023/01/31 12:28:06;;;;;;;8.95;1.67;;;5.80;99.90;;;;;;4971946;28;20039;-78
2023/01/31 12:31:08;;;;;;;5.32;1.60;;;5.80;99.90;;;;;;4978983;28;20042;-78
2023/01/31 12:34:02;;;;;;;8.63;1.70;;;5.70;99.90;;;;;;4977442;28;20376;-79
2023/01/31 12:37:06;;;;;;;8.02;2.13;;;5.70;99.90;;;;;;4986665;28;20027;-77
2023/01/31 12:39:34;;;;;;;;;;;5.60;99.90;;;;;;4973626;28;20026;-77
2023/01/31 12:42:15;;;;;;;7.97;1.92;;;5.60;99.90;;;;;;4972664;28;19938;-77
2023/01/31 12:44:55;;;;;;;4.47;1.83;;;5.60;99.90;;;;;;4975808;28;20023;-77
2023/01/31 12:47:29;;;;;;;7.30;1.85;;;5.50;99.90;;;;;;4969270;28;20803;-77
2023/01/31 12:50:21;;;;;;;7.88;2.10;;;5.50;99.90;;;;;;4974120;28;20492;-77
2023/01/31 12:52:50;;;;;;;5.88;2.10;;;5.50;99.90;;;;;;4972414;28;20117;-76
2023/01/31 12:55:40;;;;;;;12.68;2.35;;;5.60;99.90;;;;;;4967241;28;20339;-77
2023/01/31 12:58:39;;;;;;;9.60;1.92;;;5.60;99.90;;;;;;4965317;28;20026;-77
2023/01/31 13:01:24;;;;;;;8.88;2.63;;;5.60;99.90;;;;;;4966846;28;20444;-77
2023/01/31 13:04:11;;;;;;;6.18;2.03;;;5.60;99.90;;;;;;4972670;28;20023;-77
2023/01/31 13:06:44;;;;;;;6.25;1.65;;;5.60;99.90;;;;;;4964998;28;20040;-77
2023/01/31 13:09:12;;;;;;;8.40;1.92;;;5.60;99.90;;;;;;4961852;28;20031;-77
2023/01/31 13:11:49;;;;;;;6.57;2.50;;;5.60;99.90;;;;;;4984499;28;20034;-76
2023/01/31 13:14:29;;;;;;;4.65;1.83;;;5.70;99.90;;;;;;4972668;28;20128;-77
2023/01/31 13:16:59;;;;;;;5.38;2.00;;;5.70;99.90;;;;;;4968622;28;20391;-78
2023/01/31 13:19:51;;;;;;;4.47;1.67;;;5.70;99.90;;;;;;4966946;28;20134;-76
2023/01/31 13:22:23;;;;;;;4.68;2.08;;;5.70;99.90;;;;;;4966991;28;20038;-77
2023/01/31 13:25:13;;;;;;;9.38;2.40;;;5.80;99.90;;;;;;4983064;28;20030;-77